Check out our new PWSWeather beta!
PWSweather.com
Personal Weather Stations
Station Observations
948974
Valtournenche, AostaIT 11028

ValtournencheAostaIT 11028

Lat: 45.877222, Lon: 7.625556

Elevation: 5085.3018

Station Type: PCE-FWS 20

http://www.cdso.it

High Low Average
Temperature 56.0°F13.3°C 39.8°F4.3°C 46.2°F7.9°C
Dew Point 46.2°F7.9°C 33.1°F0.6°C 39.1°F3.9°C
Winds 7.0 mph 11.3 kmh Calm Calm 3.0 mph S4.8 kmh S
Wind Gusts 12.0 mph19.3 kmh 2.0 mph3.2 kmh 6.0 mph9.7 kmh
Humidity 97% 51% 77%
Pressure 30.06 in1017.9 mb 29.83 in1010.2 mb -
Precipitation 0.19 in4.8 mm - -
Hour Temp Dew Point Humidity Winds Wind Gusts Pressure Precip Precip Rate Daily Precip Total
12:03 AM 42.2°F5.7°C 35.1°F1.7°C 76% 2.0 mph NE3.2 kmh NE 3.0 mph4.8 kmh 30.05 in1017.6 mb 0.00 in0.0 mm 0.00 in0.0 mm 0.00 in0.0 mm
12:21 AM 41.5°F5.3°C 34.9°F1.6°C 77% 1.0 mph NE1.6 kmh NE 4.0 mph6.4 kmh 30.05 in1017.6 mb 0.00 in0.0 mm 0.00 in0.0 mm 0.00 in0.0 mm
12:42 AM 42.1°F5.6°C 35.2°F1.8°C 76% 5.0 mph NE8.0 kmh NE 11.0 mph17.7 kmh 30.05 in1017.6 mb 0.00 in0.0 mm 0.00 in0.0 mm 0.00 in0.0 mm
01:03 AM 42.9°F6.1°C 34.8°F1.6°C 73% 3.0 mph NE4.8 kmh NE 5.0 mph8.0 kmh 30.04 in1017.3 mb 0.00 in0.0 mm 0.00 in0.0 mm 0.00 in0.0 mm
01:21 AM 41.1°F5.1°C 34.2°F1.2°C 76% 3.0 mph NE4.8 kmh NE 8.0 mph12.9 kmh 30.06 in1017.9 mb 0.00 in0.0 mm 0.00 in0.0 mm 0.00 in0.0 mm
01:42 AM 42.3°F5.7°C 34.9°F1.6°C 75% 3.0 mph NE4.8 kmh NE 7.0 mph11.3 kmh 30.04 in1017.3 mb 0.00 in0.0 mm 0.00 in0.0 mm 0.00 in0.0 mm
02:03 AM 41.8°F5.4°C 34.6°F1.4°C 75% 3.0 mph NE4.8 kmh NE 6.0 mph9.7 kmh 30.05 in1017.6 mb 0.00 in0.0 mm 0.00 in0.0 mm 0.00 in0.0 mm
02:21 AM 41.9°F5.5°C 34.9°F1.6°C 76% 4.0 mph NE6.4 kmh NE 8.0 mph12.9 kmh 30.05 in1017.6 mb 0.00 in0.0 mm 0.00 in0.0 mm 0.00 in0.0 mm
02:42 AM 42.3°F5.7°C 34.4°F1.3°C 73% 4.0 mph NE6.4 kmh NE 8.0 mph12.9 kmh 30.04 in1017.3 mb 0.00 in0.0 mm 0.00 in0.0 mm 0.00 in0.0 mm
03:03 AM 41.3°F5.2°C 34.3°F1.3°C 76% 3.0 mph NE4.8 kmh NE 7.0 mph11.3 kmh 30.05 in1017.6 mb 0.00 in0.0 mm 0.00 in0.0 mm 0.00 in0.0 mm
03:21 AM 41.5°F5.3°C 34.0°F1.1°C 74% 3.0 mph NE4.8 kmh NE 6.0 mph9.7 kmh 30.04 in1017.3 mb 0.00 in0.0 mm 0.00 in0.0 mm 0.00 in0.0 mm
03:42 AM 41.2°F5.1°C 34.1°F1.2°C 76% 3.0 mph NE4.8 kmh NE 8.0 mph12.9 kmh 30.04 in1017.3 mb 0.00 in0.0 mm 0.00 in0.0 mm 0.00 in0.0 mm
04:03 AM 42.3°F5.7°C 34.3°F1.3°C 73% 6.0 mph NE9.7 kmh NE 11.0 mph17.7 kmh 30.03 in1016.9 mb 0.00 in0.0 mm 0.00 in0.0 mm 0.00 in0.0 mm
04:21 AM 42.3°F5.7°C 33.7°F0.9°C 72% 4.0 mph NE6.4 kmh NE 7.0 mph11.3 kmh 30.02 in1016.6 mb 0.00 in0.0 mm 0.00 in0.0 mm 0.00 in0.0 mm
04:42 AM 40.9°F4.9°C 33.4°F0.8°C 74% 2.0 mph NE3.2 kmh NE 4.0 mph6.4 kmh 30.04 in1017.3 mb 0.00 in0.0 mm 0.00 in0.0 mm 0.00 in0.0 mm
05:03 AM 40.7°F4.8°C 33.9°F1.1°C 77% 3.0 mph NE4.8 kmh NE 5.0 mph8.0 kmh 30.04 in1017.3 mb 0.00 in0.0 mm 0.00 in0.0 mm 0.00 in0.0 mm
05:42 AM 39.8°F4.3°C 33.1°F0.6°C 77% 2.0 mph NE3.2 kmh NE 4.0 mph6.4 kmh 30.05 in1017.6 mb 0.00 in0.0 mm 0.00 in0.0 mm 0.00 in0.0 mm
06:03 AM 40.1°F4.5°C 33.5°F0.8°C 77% 3.0 mph NE4.8 kmh NE 6.0 mph9.7 kmh 30.05 in1017.6 mb 0.00 in0.0 mm 0.00 in0.0 mm 0.00 in0.0 mm
06:21 AM 40.0°F4.4°C 33.2°F0.7°C 76% 4.0 mph NE6.4 kmh NE 7.0 mph11.3 kmh 30.05 in1017.6 mb 0.00 in0.0 mm 0.00 in0.0 mm 0.00 in0.0 mm
06:42 AM 41.2°F5.1°C 33.3°F0.7°C 73% 3.0 mph NE4.8 kmh NE 5.0 mph8.0 kmh 30.04 in1017.3 mb 0.00 in0.0 mm 0.00 in0.0 mm 0.00 in0.0 mm
07:03 AM 41.0°F5.0°C 33.1°F0.6°C 73% 2.0 mph NE3.2 kmh NE 4.0 mph6.4 kmh 30.04 in1017.3 mb 0.00 in0.0 mm 0.00 in0.0 mm 0.00 in0.0 mm
07:21 AM 40.1°F4.5°C 33.2°F0.7°C 76% 2.0 mph NE3.2 kmh NE 3.0 mph4.8 kmh 30.05 in1017.6 mb 0.00 in0.0 mm 0.00 in0.0 mm 0.00 in0.0 mm
07:42 AM 40.6°F4.8°C 33.9°F1.1°C 77% 2.0 mph NE3.2 kmh NE 3.0 mph4.8 kmh 30.05 in1017.6 mb 0.00 in0.0 mm 0.00 in0.0 mm 0.00 in0.0 mm
08:03 AM 42.0°F5.6°C 34.9°F1.6°C 76% 2.0 mph NE3.2 kmh NE 3.0 mph4.8 kmh 30.03 in1016.9 mb 0.00 in0.0 mm 0.00 in0.0 mm 0.00 in0.0 mm
08:42 AM 44.8°F7.1°C 36.1°F2.3°C 71% 2.0 mph NE3.2 kmh NE 4.0 mph6.4 kmh 30.01 in1016.3 mb 0.00 in0.0 mm 0.00 in0.0 mm 0.00 in0.0 mm
09:03 AM 46.6°F8.1°C 35.0°F1.7°C 64% 3.0 mph NE4.8 kmh NE 5.0 mph8.0 kmh 29.99 in1015.6 mb 0.00 in0.0 mm 0.00 in0.0 mm 0.00 in0.0 mm
09:21 AM 49.4°F9.7°C 35.7°F2.1°C 59% 1.0 mph NE1.6 kmh NE 2.0 mph3.2 kmh 29.95 in1014.2 mb 0.00 in0.0 mm 0.00 in0.0 mm 0.00 in0.0 mm
09:42 AM 50.1°F10.1°C 35.4°F1.9°C 57% 2.0 mph NW3.2 kmh NW 6.0 mph9.7 kmh 29.94 in1013.9 mb 0.00 in0.0 mm 0.00 in0.0 mm 0.00 in0.0 mm
10:03 AM 50.1°F10.1°C 36.6°F2.6°C 60% 2.0 mph NW3.2 kmh NW 5.0 mph8.0 kmh 29.95 in1014.2 mb 0.00 in0.0 mm 0.00 in0.0 mm 0.00 in0.0 mm
10:21 AM 52.9°F11.6°C 36.4°F2.4°C 54% 2.0 mph NW3.2 kmh NW 4.0 mph6.4 kmh 29.91 in1012.9 mb 0.00 in0.0 mm 0.00 in0.0 mm 0.00 in0.0 mm
10:42 AM 53.0°F11.7°C 35.7°F2.1°C 52% 3.0 mph NW4.8 kmh NW 5.0 mph8.0 kmh 29.91 in1012.9 mb 0.00 in0.0 mm 0.00 in0.0 mm 0.00 in0.0 mm
11:03 AM 52.9°F11.6°C 35.4°F1.9°C 51% 5.0 mph NW8.0 kmh NW 8.0 mph12.9 kmh 29.91 in1012.9 mb 0.00 in0.0 mm 0.00 in0.0 mm 0.00 in0.0 mm
11:21 AM 52.7°F11.5°C 35.8°F2.1°C 52% 4.0 mph NW6.4 kmh NW 7.0 mph11.3 kmh 29.91 in1012.9 mb 0.00 in0.0 mm 0.00 in0.0 mm 0.00 in0.0 mm
11:42 AM 53.2°F11.8°C 36.0°F2.2°C 52% 3.0 mph NW4.8 kmh NW 8.0 mph12.9 kmh 29.90 in1012.5 mb 0.00 in0.0 mm 0.00 in0.0 mm 0.00 in0.0 mm
12:21 PM 54.6°F12.6°C 36.8°F2.7°C 51% 6.0 mph NW9.7 kmh NW 8.0 mph12.9 kmh 29.88 in1011.9 mb 0.00 in0.0 mm 0.00 in0.0 mm 0.00 in0.0 mm
12:42 PM 54.9°F12.7°C 37.8°F3.2°C 52% 3.0 mph NW4.8 kmh NW 8.0 mph12.9 kmh 29.87 in1011.5 mb 0.00 in0.0 mm 0.00 in0.0 mm 0.00 in0.0 mm
01:21 PM 55.2°F12.9°C 40.4°F4.7°C 57% 7.0 mph W11.3 kmh W 12.0 mph19.3 kmh 29.84 in1010.5 mb 0.00 in0.0 mm 0.00 in0.0 mm 0.00 in0.0 mm
01:42 PM 56.0°F13.3°C 42.4°F5.8°C 60% 6.0 mph WNW9.7 kmh WNW 11.0 mph17.7 kmh 29.83 in1010.2 mb 0.00 in0.0 mm 0.00 in0.0 mm 0.00 in0.0 mm
02:03 PM 55.6°F13.1°C 44.3°F6.8°C 66% 7.0 mph W11.3 kmh W 11.0 mph17.7 kmh 29.83 in1010.2 mb 0.00 in0.0 mm 0.00 in0.0 mm 0.00 in0.0 mm
02:21 PM 55.6°F13.1°C 44.8°F7.1°C 67% 5.0 mph WSW8.0 kmh WSW 11.0 mph17.7 kmh 29.83 in1010.2 mb 0.00 in0.0 mm 0.00 in0.0 mm 0.00 in0.0 mm
02:42 PM 55.3°F12.9°C 45.0°F7.2°C 68% 6.0 mph SW9.7 kmh SW 11.0 mph17.7 kmh 29.83 in1010.2 mb 0.00 in0.0 mm 0.00 in0.0 mm 0.00 in0.0 mm
03:03 PM 53.2°F11.8°C 44.9°F7.2°C 74% 4.0 mph NW6.4 kmh NW 8.0 mph12.9 kmh 29.85 in1010.8 mb 0.00 in0.0 mm 0.00 in0.0 mm 0.00 in0.0 mm
03:21 PM 51.4°F10.8°C 45.3°F7.4°C 80% 3.0 mph W4.8 kmh W 7.0 mph11.3 kmh 29.86 in1011.2 mb 0.00 in0.0 mm 0.00 in0.0 mm 0.00 in0.0 mm
03:42 PM 50.5°F10.3°C 45.7°F7.6°C 84% 5.0 mph W8.0 kmh W 9.0 mph14.5 kmh 29.87 in1011.5 mb 0.00 in0.0 mm 0.00 in0.0 mm 0.00 in0.0 mm
04:03 PM 49.6°F9.8°C 45.8°F7.7°C 87% 3.0 mph W4.8 kmh W 6.0 mph9.7 kmh 29.88 in1011.9 mb 0.00 in0.0 mm 0.00 in0.0 mm 0.00 in0.0 mm
04:21 PM 49.2°F9.6°C 46.1°F7.8°C 89% 4.0 mph W6.4 kmh W 6.0 mph9.7 kmh 29.89 in1012.2 mb 0.00 in0.0 mm 0.00 in0.0 mm 0.00 in0.0 mm
04:42 PM 47.8°F8.8°C 46.2°F7.9°C 94% 3.0 mph W4.8 kmh W 7.0 mph11.3 kmh 29.91 in1012.9 mb 0.00 in0.0 mm 0.00 in0.0 mm 0.00 in0.0 mm
05:03 PM 46.8°F8.2°C 46.1°F7.8°C 97% 2.0 mph W3.2 kmh W 4.0 mph6.4 kmh 29.92 in1013.2 mb 0.01 in0.3 mm 0.02 in0.5 mm 0.01 in0.3 mm
05:21 PM 46.2°F7.9°C 45.4°F7.4°C 97% 2.0 mph W3.2 kmh W 4.0 mph6.4 kmh 29.93 in1013.5 mb 0.02 in0.5 mm 0.03 in0.8 mm 0.02 in0.5 mm
05:42 PM 46.0°F7.8°C 45.2°F7.3°C 97% 1.0 mph W1.6 kmh W 2.0 mph3.2 kmh 29.93 in1013.5 mb 0.04 in1.0 mm 0.06 in1.5 mm 0.04 in1.0 mm
06:03 PM 45.8°F7.7°C 45.0°F7.2°C 97% 1.0 mph W1.6 kmh W 3.0 mph4.8 kmh 29.93 in1013.5 mb 0.04 in1.0 mm 0.00 in0.0 mm 0.05 in1.3 mm
06:21 PM 45.4°F7.4°C 44.6°F7.0°C 97% 1.0 mph W1.6 kmh W 3.0 mph4.8 kmh 29.93 in1013.5 mb 0.02 in0.5 mm 0.00 in0.0 mm 0.05 in1.3 mm
06:42 PM 45.6°F7.6°C 44.8°F7.1°C 97% Calm Calm 2.0 mph3.2 kmh 29.93 in1013.5 mb 0.02 in0.5 mm 0.00 in0.0 mm 0.06 in1.5 mm
07:03 PM 45.5°F7.5°C 44.7°F7.1°C 97% 1.0 mph W1.6 kmh W 3.0 mph4.8 kmh 29.93 in1013.5 mb 0.02 in0.5 mm 0.00 in0.0 mm 0.07 in1.8 mm
07:21 PM 45.3°F7.4°C 44.5°F6.9°C 97% 1.0 mph W1.6 kmh W 2.0 mph3.2 kmh 29.93 in1013.5 mb 0.04 in1.0 mm 0.07 in1.8 mm 0.08 in2.0 mm
08:03 PM 45.3°F7.4°C 44.5°F6.9°C 97% Calm Calm 2.0 mph3.2 kmh 29.91 in1012.9 mb 0.01 in0.3 mm 0.00 in0.0 mm 0.08 in2.0 mm
08:21 PM 45.4°F7.4°C 44.6°F7.0°C 97% Calm Calm 2.0 mph3.2 kmh 29.89 in1012.2 mb 0.01 in0.3 mm 0.00 in0.0 mm 0.09 in2.3 mm
08:42 PM 45.3°F7.4°C 44.5°F6.9°C 97% 1.0 mph W1.6 kmh W 4.0 mph6.4 kmh 29.89 in1012.2 mb 0.02 in0.5 mm 0.03 in0.8 mm 0.11 in2.8 mm
09:03 PM 45.1°F7.3°C 44.3°F6.8°C 97% 2.0 mph W3.2 kmh W 7.0 mph11.3 kmh 29.89 in1012.2 mb 0.04 in1.0 mm 0.03 in0.8 mm 0.12 in3.0 mm
09:21 PM 44.9°F7.2°C 44.1°F6.7°C 97% 1.0 mph WNW1.6 kmh WNW 4.0 mph6.4 kmh 29.90 in1012.5 mb 0.05 in1.3 mm 0.03 in0.8 mm 0.14 in3.6 mm
09:42 PM 44.7°F7.1°C 43.9°F6.6°C 97% 1.0 mph W1.6 kmh W 3.0 mph4.8 kmh 29.89 in1012.2 mb 0.06 in1.5 mm 0.03 in0.8 mm 0.17 in4.3 mm
10:03 PM 44.7°F7.1°C 43.9°F6.6°C 97% Calm Calm 2.0 mph3.2 kmh 29.89 in1012.2 mb 0.06 in1.5 mm 0.00 in0.0 mm 0.18 in4.6 mm
10:21 PM 44.6°F7.0°C 43.8°F6.6°C 97% 1.0 mph W1.6 kmh W 2.0 mph3.2 kmh 29.88 in1011.9 mb 0.05 in1.3 mm 0.00 in0.0 mm 0.19 in4.8 mm
10:42 PM 44.4°F6.9°C 43.7°F6.5°C 97% Calm Calm 2.0 mph3.2 kmh 29.87 in1011.5 mb 0.02 in0.5 mm 0.00 in0.0 mm 0.19 in4.8 mm
10:55 PM 43.2°F6.2°C 42.6°F5.9°C 98% 2.0 mph W3.2 kmh W 2.0 mph3.2 kmh 29.88 in1011.9 mb 0.02 in0.5 mm 0.00 in0.0 mm 0.19 in4.8 mm
11:16 PM 43.2°F6.2°C 42.6°F5.9°C 98% Calm Calm 1.0 mph1.6 kmh 29.87 in1011.5 mb 0.01 in0.3 mm 0.00 in0.0 mm 0.11 in2.8 mm
11:37 PM 43.0°F6.1°C 42.5°F5.8°C 98% 1.0 mph W1.6 kmh W 2.0 mph3.2 kmh 29.86 in1011.2 mb 0.01 in0.3 mm 0.00 in0.0 mm 0.01 in0.3 mm
11:58 PM 43.0°F6.1°C 42.5°F5.8°C 98% Calm Calm -- 29.88 in1011.9 mb 0.01 in0.3 mm 0.00 in0.0 mm 0.01 in0.3 mm